createdAt,value
2022-10-17T00:01:29.933Z,101537.19
2022-10-17T00:07:40.097Z,101530.16
2022-10-17T00:10:43.176Z,101533.53
2022-10-17T00:13:47.265Z,101535.97
2022-10-17T00:16:50.131Z,101536.75
2022-10-17T00:19:52.551Z,101547.09
2022-10-17T00:22:55.405Z,101543.69
2022-10-17T00:26:02.330Z,101537.34
2022-10-17T00:29:05.383Z,101538.22
2022-10-17T00:32:07.994Z,101546.00
2022-10-17T00:35:11.659Z,101541.59
2022-10-17T00:38:14.018Z,101544.91
2022-10-17T00:41:19.129Z,101542.03
2022-10-17T00:44:30.619Z,101544.78
2022-10-17T00:47:35.980Z,101537.72
2022-10-17T00:50:41.399Z,101541.06
2022-10-17T00:53:44.515Z,101544.50
2022-10-17T00:56:47.882Z,101540.94
2022-10-17T00:59:57.163Z,101541.75
2022-10-17T01:03:00.079Z,101534.59
2022-10-17T01:06:03.069Z,101536.19
2022-10-17T01:09:05.615Z,101536.94
2022-10-17T01:12:23.203Z,101530.66
2022-10-17T01:15:37.982Z,101539.34
2022-10-17T01:19:02.703Z,101537.66
2022-10-17T01:22:21.588Z,101540.28
2022-10-17T01:25:43.422Z,101539.25
2022-10-17T01:29:19.716Z,101536.47
2022-10-17T01:32:35.899Z,101531.09
2022-10-17T01:35:48.196Z,101537.28
2022-10-17T01:39:30.005Z,101536.28
2022-10-17T01:42:53.208Z,101543.31
2022-10-17T01:46:07.239Z,101537.00
2022-10-17T01:49:13.321Z,101539.59
2022-10-17T01:52:23.201Z,101537.78
2022-10-17T01:55:31.734Z,101547.19
2022-10-17T01:58:41.647Z,101540.84
2022-10-17T02:01:47.124Z,101544.28
2022-10-17T02:04:52.953Z,101546.66
2022-10-17T02:07:55.583Z,101553.66
2022-10-17T02:11:11.130Z,101548.22
2022-10-17T02:14:22.710Z,101549.06
2022-10-17T02:17:44.687Z,101548.94
2022-10-17T02:20:56.540Z,101545.34
2022-10-17T02:24:21.317Z,101548.63
2022-10-17T02:27:43.906Z,101541.41
2022-10-17T02:31:09.219Z,101543.00
2022-10-17T02:34:29.256Z,101552.47
2022-10-17T02:37:32.863Z,101558.56
2022-10-17T02:40:37.962Z,101561.69
2022-10-17T02:43:41.523Z,101562.47
2022-10-17T02:46:55.965Z,101564.12
2022-10-17T02:49:58.640Z,101566.66
2022-10-17T02:53:11.765Z,101571.97
2022-10-17T02:56:20.111Z,101572.63
2022-10-17T02:59:27.328Z,101577.72
2022-10-17T03:02:39.189Z,101576.69
2022-10-17T03:05:42.023Z,101579.53
2022-10-17T03:08:44.824Z,101575.78
2022-10-17T03:11:47.516Z,101580.25
2022-10-17T03:14:50.312Z,101574.00
2022-10-17T03:17:53.478Z,101572.34
2022-10-17T03:20:56.298Z,101580.81
2022-10-17T03:23:59.081Z,101589.44
2022-10-17T03:27:01.811Z,101592.84
2022-10-17T03:30:05.679Z,101602.28
2022-10-17T03:33:08.560Z,101602.13
2022-10-17T03:36:15.180Z,101598.63
2022-10-17T03:39:18.016Z,101601.97
2022-10-17T03:42:20.977Z,101614.41
2022-10-17T03:45:24.416Z,101617.03
2022-10-17T03:48:28.279Z,101622.19
2022-10-17T03:51:34.136Z,101622.38
2022-10-17T03:54:37.182Z,101622.19
2022-10-17T03:57:42.156Z,101620.97
2022-10-17T04:00:48.454Z,101626.06
2022-10-17T04:03:52.318Z,101629.66
2022-10-17T04:06:54.793Z,101627.03
2022-10-17T04:09:57.958Z,101633.91
2022-10-17T04:13:00.311Z,101634.72
2022-10-17T04:16:07.216Z,101632.25
2022-10-17T04:19:13.584Z,101646.06
2022-10-17T04:22:16.793Z,101645.19
2022-10-17T04:25:19.208Z,101647.81
2022-10-17T04:28:22.273Z,101651.91
2022-10-17T04:31:25.089Z,101649.28
2022-10-17T04:34:29.410Z,101653.56
2022-10-17T04:37:32.116Z,101652.59
2022-10-17T04:40:36.486Z,101651.59
2022-10-17T04:43:41.047Z,101654.97
2022-10-17T04:46:44.075Z,101655.69
2022-10-17T04:49:46.815Z,101657.44
2022-10-17T04:52:50.141Z,101653.84
2022-10-17T04:55:52.629Z,101662.50
2022-10-17T04:58:55.764Z,101659.88
2022-10-17T05:01:58.230Z,101671.19
2022-10-17T05:05:01.429Z,101672.97
2022-10-17T05:08:05.781Z,101676.47
2022-10-17T05:11:39.132Z,101674.59
2022-10-17T05:14:41.812Z,101673.72
2022-10-17T05:17:44.771Z,101681.69
2022-10-17T05:20:47.650Z,101682.53
2022-10-17T05:23:51.359Z,101687.19
2022-10-17T05:26:53.774Z,101687.34
2022-10-17T05:29:56.904Z,101690.19
2022-10-17T05:32:59.718Z,101705.91
2022-10-17T05:36:03.284Z,101705.00
2022-10-17T05:39:05.811Z,101705.63
2022-10-17T05:42:09.639Z,101714.53
2022-10-17T05:45:13.908Z,101720.28
2022-10-17T05:48:17.342Z,101717.81
2022-10-17T05:51:20.351Z,101718.44
2022-10-17T05:54:27.357Z,101728.22
2022-10-17T05:57:29.954Z,101732.13
2022-10-17T06:00:33.486Z,101739.91
2022-10-17T06:03:36.754Z,101734.41
2022-10-17T06:06:40.483Z,101749.03
2022-10-17T06:09:43.780Z,101748.25
2022-10-17T06:12:47.720Z,101749.53
2022-10-17T06:15:50.796Z,101758.59
2022-10-17T06:18:54.001Z,101765.69
2022-10-17T06:21:56.940Z,101764.59
2022-10-17T06:25:00.439Z,101773.22
2022-10-17T06:28:03.899Z,101774.88
2022-10-17T06:31:12.459Z,101781.78
2022-10-17T06:34:16.245Z,101774.22
2022-10-17T06:37:19.859Z,101784.59
2022-10-17T06:40:23.063Z,101791.72
2022-10-17T06:43:28.125Z,101794.91
2022-10-17T06:46:31.614Z,101800.78
2022-10-17T06:49:34.393Z,101793.00
2022-10-17T06:52:37.492Z,101794.88
2022-10-17T06:55:43.113Z,101810.13
2022-10-17T06:58:47.065Z,101801.03
2022-10-17T07:01:50.169Z,101813.00
2022-10-17T07:04:53.242Z,101810.03
2022-10-17T07:07:56.023Z,101805.41
2022-10-17T07:10:59.187Z,101816.78
2022-10-17T07:14:02.754Z,101819.75
2022-10-17T07:17:05.662Z,101821.47
2022-10-17T07:20:09.362Z,101824.66
2022-10-17T07:23:12.749Z,101815.25
2022-10-17T07:26:17.884Z,101811.28
2022-10-17T07:29:21.144Z,101810.22
2022-10-17T07:32:25.593Z,101814.62
2022-10-17T07:35:28.775Z,101817.09
2022-10-17T07:38:32.367Z,101814.03
2022-10-17T07:41:35.632Z,101815.03
2022-10-17T07:44:39.935Z,101814.69
2022-10-17T07:47:43.138Z,101820.34
2022-10-17T07:50:46.261Z,101813.31
2022-10-17T07:53:49.455Z,101807.84
2022-10-17T07:56:52.137Z,101806.19
2022-10-17T07:59:54.993Z,101809.69
2022-10-17T08:02:57.635Z,101813.84
2022-10-17T08:06:01.840Z,101808.75
2022-10-17T08:09:04.715Z,101814.72
2022-10-17T08:12:07.524Z,101814.25
2022-10-17T08:15:11.114Z,101818.06
2022-10-17T08:18:15.072Z,101823.47
2022-10-17T08:21:17.688Z,101817.63
2022-10-17T08:24:20.944Z,101823.09
2022-10-17T08:27:26.221Z,101808.66
2022-10-17T08:30:30.753Z,101813.72
2022-10-17T08:33:33.839Z,101819.16
2022-10-17T08:36:36.782Z,101819.03
2022-10-17T08:39:41.241Z,101827.25
2022-10-17T08:43:23.981Z,101803.34
2022-10-17T08:46:35.145Z,101809.75
2022-10-17T08:49:47.901Z,101800.81
2022-10-17T08:53:10.729Z,101812.44
2022-10-17T08:56:55.070Z,101804.13
2022-10-17T08:59:57.902Z,101803.25
2022-10-17T09:03:15.700Z,101798.91
2022-10-17T09:06:25.244Z,101797.59
2022-10-17T09:10:05.966Z,101795.81
2022-10-17T09:13:17.122Z,101795.34
2022-10-17T09:16:25.805Z,101788.72
2022-10-17T09:19:51.226Z,101788.63
2022-10-17T09:23:01.601Z,101791.81
2022-10-17T09:26:04.454Z,101785.22
2022-10-17T09:29:24.951Z,101784.47
2022-10-17T09:32:28.991Z,101781.69
2022-10-17T09:35:32.036Z,101784.16
2022-10-17T09:38:47.780Z,101790.50
2022-10-17T09:41:53.758Z,101786.81
2022-10-17T09:45:05.192Z,101791.16
2022-10-17T09:48:38.443Z,101789.47
2022-10-17T09:51:41.341Z,101785.97
2022-10-17T09:55:06.937Z,101784.31
2022-10-17T09:58:11.355Z,101783.25
2022-10-17T10:01:26.470Z,101788.09
2022-10-17T10:04:30.413Z,101783.88
2022-10-17T10:07:40.089Z,101779.75
2022-10-17T10:10:44.345Z,101786.25
2022-10-17T10:13:48.813Z,101787.44
2022-10-17T10:16:53.800Z,101774.00
2022-10-17T10:19:56.678Z,101778.94
2022-10-17T10:23:18.298Z,101775.22
2022-10-17T10:26:27.560Z,101778.22
2022-10-17T10:29:35.673Z,101777.28
2022-10-17T10:32:38.677Z,101771.56
2022-10-17T10:35:41.713Z,101770.00
2022-10-17T10:38:54.516Z,101764.84
2022-10-17T10:41:57.747Z,101771.63
2022-10-17T10:45:19.148Z,101765.69
2022-10-17T10:48:35.084Z,101754.97
2022-10-17T10:51:44.707Z,101753.91
2022-10-17T10:55:02.931Z,101756.59
2022-10-17T10:58:27.180Z,101759.88
2022-10-17T11:01:52.883Z,101752.69
2022-10-17T11:04:58.025Z,101752.81
2022-10-17T11:08:07.516Z,101751.44
2022-10-17T11:11:28.572Z,101759.53
2022-10-17T11:14:43.575Z,101748.63
2022-10-17T11:17:57.000Z,101750.56
2022-10-17T11:21:06.296Z,101757.75
2022-10-17T11:24:25.546Z,101747.28
2022-10-17T11:27:30.428Z,101732.78
2022-10-17T11:31:07.849Z,101737.88
2022-10-17T11:34:20.244Z,101742.97
2022-10-17T11:37:30.681Z,101732.69
2022-10-17T11:40:38.401Z,101735.75
2022-10-17T11:43:50.218Z,101730.22
2022-10-17T11:47:12.389Z,101723.75
2022-10-17T11:54:15.179Z,101717.31
2022-10-17T11:57:34.813Z,101712.13
2022-10-17T12:00:51.511Z,101721.28
2022-10-17T12:04:31.709Z,101712.94
2022-10-17T12:07:48.342Z,101713.09
2022-10-17T12:11:13.796Z,101716.38
2022-10-17T12:14:35.352Z,101700.19
2022-10-17T12:17:40.937Z,101697.31
2022-10-17T12:20:43.637Z,101694.44
2022-10-17T12:23:54.298Z,101696.84
2022-10-17T12:26:57.197Z,101693.00
2022-10-17T12:30:11.586Z,101684.03
2022-10-17T12:33:29.539Z,101680.63
2022-10-17T12:36:32.160Z,101685.38
2022-10-17T12:39:42.076Z,101678.41
2022-10-17T12:42:49.031Z,101678.41
2022-10-17T12:45:53.019Z,101672.66
2022-10-17T12:49:01.706Z,101678.44
2022-10-17T12:52:27.452Z,101672.09
2022-10-17T12:55:30.240Z,101670.25
2022-10-17T12:58:35.455Z,101665.50
2022-10-17T13:01:39.970Z,101672.81
2022-10-17T13:04:50.648Z,101667.09
2022-10-17T13:07:58.033Z,101664.34
2022-10-17T13:11:02.833Z,101671.41
2022-10-17T13:14:13.376Z,101663.72
2022-10-17T13:17:28.445Z,101669.38
2022-10-17T13:20:32.481Z,101666.09
2022-10-17T13:23:37.681Z,101664.47
2022-10-17T13:26:45.693Z,101663.69
2022-10-17T13:29:48.354Z,101656.56
2022-10-17T13:32:51.578Z,101655.75
2022-10-17T13:36:00.297Z,101661.09
2022-10-17T13:39:12.181Z,101649.53
2022-10-17T13:42:36.794Z,101655.75
2022-10-17T13:45:40.371Z,101664.59
2022-10-17T13:48:43.631Z,101654.81
2022-10-17T13:51:49.762Z,101657.47
2022-10-17T13:54:53.822Z,101656.56
2022-10-17T13:57:57.371Z,101656.56
2022-10-17T14:01:00.224Z,101662.78
2022-10-17T14:04:09.300Z,101660.09
2022-10-17T14:07:52.032Z,101656.47
2022-10-17T14:11:00.232Z,101658.28
2022-10-17T14:14:05.628Z,101654.63
2022-10-17T14:17:22.066Z,101650.13
2022-10-17T14:21:07.831Z,101646.53
2022-10-17T14:23:47.740Z,101648.19
2022-10-17T14:26:56.456Z,101640.09
2022-10-17T14:30:02.685Z,101645.22
2022-10-17T14:33:13.998Z,101644.28
2022-10-17T14:36:16.952Z,101654.88
2022-10-17T14:39:23.243Z,101654.72
2022-10-17T14:42:26.758Z,101656.34
2022-10-17T14:45:37.093Z,101657.06
2022-10-17T14:48:42.434Z,101648.91
2022-10-17T14:52:24.368Z,101649.66
2022-10-17T14:55:29.519Z,101643.47
2022-10-17T14:58:34.627Z,101651.38
2022-10-17T15:01:37.454Z,101650.31
2022-10-17T15:04:40.031Z,101649.41
2022-10-17T15:07:43.449Z,101645.72
2022-10-17T15:10:47.580Z,101647.37
2022-10-17T15:13:51.065Z,101647.28
2022-10-17T15:16:53.772Z,101641.88
2022-10-17T15:19:57.237Z,101648.88
2022-10-17T15:23:02.473Z,101659.38
2022-10-17T15:26:22.379Z,101656.69
2022-10-17T15:29:25.007Z,101656.50
2022-10-17T15:32:27.750Z,101658.16
2022-10-17T15:35:31.000Z,101654.56
2022-10-17T15:38:33.869Z,101657.06
2022-10-17T15:41:36.516Z,101660.53
2022-10-17T15:44:44.385Z,101667.44
2022-10-17T15:47:52.688Z,101669.28
2022-10-17T15:50:55.417Z,101670.81
2022-10-17T15:54:01.310Z,101683.97
2022-10-17T15:57:04.581Z,101681.34
2022-10-17T16:00:17.148Z,101684.53
2022-10-17T16:06:23.172Z,101687.81
2022-10-17T16:09:25.992Z,101685.84
2022-10-17T16:12:31.061Z,101699.00
2022-10-17T16:15:34.157Z,101695.31
2022-10-17T16:18:36.874Z,101696.12
2022-10-17T16:21:41.544Z,101697.72
2022-10-17T16:24:44.154Z,101699.34
2022-10-17T16:27:48.712Z,101700.22
2022-10-17T16:30:51.357Z,101698.22
2022-10-17T16:33:55.941Z,101697.25
2022-10-17T16:36:58.576Z,101693.50
2022-10-17T16:40:01.945Z,101698.72
2022-10-17T16:43:05.106Z,101703.03
2022-10-17T16:46:07.891Z,101706.38
2022-10-17T16:49:10.659Z,101710.78
2022-10-17T16:52:13.513Z,101711.53
2022-10-17T16:55:18.926Z,101714.97
2022-10-17T16:58:21.635Z,101713.97
2022-10-17T17:01:25.739Z,101720.06
2022-10-17T17:04:28.574Z,101719.03
2022-10-17T17:07:31.484Z,101725.97
2022-10-17T17:10:34.313Z,101714.44
2022-10-17T17:13:37.496Z,101723.94
2022-10-17T17:16:40.233Z,101730.00
2022-10-17T17:19:42.938Z,101729.88
2022-10-17T17:22:45.611Z,101727.97
2022-10-17T17:25:48.431Z,101733.12
2022-10-17T17:28:51.508Z,101729.34
2022-10-17T17:31:54.160Z,101733.59
2022-10-17T17:34:56.870Z,101735.16
2022-10-17T17:37:59.585Z,101740.28
2022-10-17T17:41:03.838Z,101734.81
2022-10-17T17:44:10.089Z,101735.47
2022-10-17T17:47:15.411Z,101743.25
2022-10-17T17:50:18.207Z,101735.09
2022-10-17T17:53:20.955Z,101728.78
2022-10-17T17:56:26.727Z,101737.47
2022-10-17T17:59:30.685Z,101738.19
2022-10-17T18:02:36.432Z,101730.12
2022-10-17T18:05:41.341Z,101737.09
2022-10-17T18:08:46.720Z,101733.47
2022-10-17T18:11:49.499Z,101733.31
2022-10-17T18:14:52.769Z,101727.94
2022-10-17T18:17:55.861Z,101734.00
2022-10-17T18:21:01.239Z,101739.19
2022-10-17T18:24:04.910Z,101735.44
2022-10-17T18:27:07.696Z,101739.78
2022-10-17T18:30:11.205Z,101732.50
2022-10-17T18:33:14.428Z,101739.31
2022-10-17T18:36:17.121Z,101732.09
2022-10-17T18:39:20.142Z,101732.09
2022-10-17T18:42:23.089Z,101732.81
2022-10-17T18:45:27.819Z,101729.09
2022-10-17T18:48:31.625Z,101738.50
2022-10-17T18:51:34.339Z,101736.47
2022-10-17T18:54:37.264Z,101744.12
2022-10-17T18:57:40.069Z,101739.56
2022-10-17T19:00:42.795Z,101740.97
2022-10-17T19:03:48.225Z,101736.47
2022-10-17T19:06:50.943Z,101728.41
2022-10-17T19:09:53.586Z,101729.94
2022-10-17T19:12:56.385Z,101737.56
2022-10-17T19:15:59.008Z,101728.69
2022-10-17T19:19:11.209Z,101738.19
2022-10-17T19:22:14.402Z,101731.91
2022-10-17T19:25:17.250Z,101735.28
2022-10-17T19:28:19.986Z,101738.53
2022-10-17T19:31:26.965Z,101740.94
2022-10-17T19:34:30.085Z,101741.75
2022-10-17T19:37:34.313Z,101736.31
2022-10-17T19:40:41.077Z,101739.66
2022-10-17T19:43:46.190Z,101729.94
2022-10-17T19:46:49.316Z,101737.66
2022-10-17T19:49:52.599Z,101727.88
2022-10-17T19:52:55.479Z,101726.75
2022-10-17T19:56:00.379Z,101729.22
2022-10-17T19:59:04.905Z,101732.69
2022-10-17T20:02:07.817Z,101734.41
2022-10-17T20:05:20.952Z,101730.84
2022-10-17T20:11:29.416Z,101735.56
2022-10-17T20:14:31.777Z,101730.09
2022-10-17T20:20:44.222Z,101740.38
2022-10-17T20:23:50.680Z,101739.31
2022-10-17T20:26:53.209Z,101739.19
2022-10-17T20:30:01.654Z,101736.34
2022-10-17T20:33:04.258Z,101740.62
2022-10-17T20:36:08.281Z,101742.28
2022-10-17T20:39:13.360Z,101742.88
2022-10-17T20:42:21.317Z,101740.97
2022-10-17T20:45:37.642Z,101739.13
2022-10-17T20:49:01.512Z,101742.50
2022-10-17T20:52:04.102Z,101744.06
2022-10-17T20:55:07.351Z,101743.25
2022-10-17T20:58:11.011Z,101743.25
2022-10-17T21:01:13.951Z,101742.28
2022-10-17T21:07:40.859Z,101738.81
2022-10-17T21:10:44.536Z,101738.63
2022-10-17T21:13:53.237Z,101744.72
2022-10-17T21:16:55.718Z,101746.34
2022-10-17T21:19:58.915Z,101743.47
2022-10-17T21:23:01.407Z,101748.59
2022-10-17T21:26:04.473Z,101745.78
2022-10-17T21:29:09.038Z,101749.13
2022-10-17T21:32:25.167Z,101749.75
2022-10-17T21:35:34.425Z,101747.97
2022-10-17T21:38:38.495Z,101745.16
2022-10-17T21:41:42.133Z,101752.00
2022-10-17T21:44:45.083Z,101752.78
2022-10-17T21:48:11.145Z,101745.81
2022-10-17T21:51:12.645Z,101739.41
2022-10-17T21:54:16.405Z,101748.87
2022-10-17T21:57:19.392Z,101749.72
2022-10-17T22:00:22.025Z,101750.47
2022-10-17T22:03:24.931Z,101744.31
2022-10-17T22:06:39.771Z,101744.31
2022-10-17T22:09:43.658Z,101738.13
2022-10-17T22:12:46.094Z,101736.16
2022-10-17T22:15:49.039Z,101739.66
2022-10-17T22:18:51.892Z,101740.53
2022-10-17T22:21:55.155Z,101734.19
2022-10-17T22:24:57.600Z,101734.94
2022-10-17T22:28:00.974Z,101730.34
2022-10-17T22:31:03.972Z,101738.03
2022-10-17T22:34:07.478Z,101729.19
2022-10-17T22:37:09.997Z,101732.63
2022-10-17T22:40:12.969Z,101739.56
2022-10-17T22:43:15.513Z,101734.22
2022-10-17T22:46:18.466Z,101731.47
2022-10-17T22:49:20.943Z,101739.06
2022-10-17T22:52:23.881Z,101742.50
2022-10-17T22:55:26.601Z,101731.19
2022-10-17T22:58:30.348Z,101738.84
2022-10-17T23:01:32.808Z,101735.19
2022-10-17T23:04:35.808Z,101732.50
2022-10-17T23:07:38.142Z,101726.38
2022-10-17T23:10:41.683Z,101724.44
2022-10-17T23:13:44.160Z,101726.97
2022-10-17T23:16:47.370Z,101719.97
2022-10-17T23:19:51.867Z,101717.13
2022-10-17T23:22:58.522Z,101710.91
2022-10-17T23:26:07.089Z,101716.22
2022-10-17T23:29:10.131Z,101702.25
2022-10-17T23:32:12.605Z,101708.16
2022-10-17T23:35:15.558Z,101708.00
2022-10-17T23:38:17.972Z,101708.16
2022-10-17T23:41:21.000Z,101699.94
2022-10-17T23:44:23.795Z,101705.03
2022-10-17T23:47:27.849Z,101708.37
2022-10-17T23:50:30.524Z,101700.34
2022-10-17T23:53:33.629Z,101697.59
2022-10-17T23:56:37.228Z,101695.66
2022-10-17T23:59:40.136Z,101695.59
